Time;durP1;ratioP1;P1;durP2;ratioP2;P2;SDS_P1;SDS_P2;PMS_P1;PMS_P2;Temp;Humidity;BMP_temperature;BMP_pressure;BME280_temperature;BME280_humidity;BME280_pressure;Samples;Min_cycle;Max_cycle;Signal;HPM_P1;HPM_P2
2022/03/03 00:00:31;;;;;;;16.73;8.80;;;;;;;;;;5107667;28;20192;-85
2022/03/03 00:02:59;;;;;;;15.23;9.13;;;;;;;;;;5103753;28;20472;-86
2022/03/03 00:05:26;;;;;;;15.95;8.35;;;;;;;;;;5103800;28;20079;-85
2022/03/03 00:07:52;;;;;;;14.25;7.63;;;;;;;;;;5107136;28;20137;-85
2022/03/03 00:10:19;;;;;;;16.20;9.13;;;;;;;;;;5105428;28;20052;-86
2022/03/03 00:12:45;;;;;;;14.90;8.10;;;;;;;;;;5107340;28;20036;-85
2022/03/03 00:15:12;;;;;;;14.32;8.35;;;;;;;;;;5105510;28;20726;-85
2022/03/03 00:17:38;;;;;;;15.02;8.50;;;;;;;;;;5105531;28;20040;-85
2022/03/03 00:20:08;;;;;;;16.55;8.95;;;;;;;;;;5101537;28;20144;-85
2022/03/03 00:22:35;;;;;;;15.20;8.45;;;;;;;;;;5107552;28;20486;-85
2022/03/03 00:25:01;;;;;;;18.83;7.95;;;;;;;;;;5099353;28;20040;-85
2022/03/03 00:27:28;;;;;;;17.40;9.18;;;;;;;;;;5101563;28;20545;-85
2022/03/03 00:29:54;;;;;;;17.17;8.50;;;;;;;;;;5103483;28;20097;-85
2022/03/03 00:32:21;;;;;;;14.45;7.53;;;;;;;;;;5099894;28;20079;-86
2022/03/03 00:34:47;;;;;;;16.88;7.93;;;;;;;;;;5103972;28;20055;-86
2022/03/03 00:37:17;;;;;;;17.33;8.45;;;;;;;;;;5099770;28;20132;-86
2022/03/03 00:39:43;;;;;;;16.55;8.27;;;;;;;;;;5097721;28;20078;-85
2022/03/03 00:42:10;;;;;;;18.17;8.93;;;;;;;;;;5099456;28;20075;-86
2022/03/03 00:44:36;;;;;;;16.17;8.73;;;;;;;;;;5102175;28;20557;-85
2022/03/03 00:47:03;;;;;;;14.48;8.38;;;;;;;;;;5086457;28;20083;-85
2022/03/03 00:49:32;;;;;;;16.48;8.73;;;;;;;;;;5081454;28;20083;-86
2022/03/03 00:51:59;;;;;;;16.13;8.52;;;;;;;;;;5084533;28;20051;-85
2022/03/03 00:54:30;;;;;;;17.02;8.50;;;;;;;;;;5089027;28;20048;-86
2022/03/03 00:56:57;;;;;;;13.82;8.75;;;;;;;;;;5082721;28;20055;-85
2022/03/03 00:59:24;;;;;;;18.50;9.48;;;;;;;;;;5082129;28;20044;-86
2022/03/03 01:01:50;;;;;;;18.92;9.02;;;;;;;;;;5081971;28;20402;-86
2022/03/03 01:04:19;;;;;;;16.15;9.20;;;;;;;;;;5081875;28;20056;-85
2022/03/03 01:06:46;;;;;;;16.00;7.60;;;;;;;;;;5085864;28;20052;-85
2022/03/03 01:09:12;;;;;;;17.20;8.88;;;;;;;;;;5079341;28;20075;-86
2022/03/03 01:11:40;;;;;;;14.98;8.27;;;;;;;;;;5086088;28;20147;-86
2022/03/03 01:14:07;;;;;;;32.05;10.27;;;;;;;;;;5084287;28;20430;-86
2022/03/03 01:16:33;;;;;;;21.25;10.02;;;;;;;;;;5086113;28;20066;-86
2022/03/03 01:19:00;;;;;;;17.38;9.43;;;;;;;;;;5082341;28;20083;-86
2022/03/03 01:21:26;;;;;;;17.48;8.48;;;;;;;;;;5092336;28;20052;-86
2022/03/03 01:23:53;;;;;;;15.30;8.13;;;;;;;;;;5096130;28;20036;-86
2022/03/03 01:26:22;;;;;;;15.35;8.77;;;;;;;;;;5086786;28;20051;-86
2022/03/03 01:28:50;;;;;;;18.30;8.60;;;;;;;;;;5087257;28;20401;-86
2022/03/03 01:31:17;;;;;;;18.95;8.70;;;;;;;;;;5091934;28;20048;-85
2022/03/03 01:33:43;;;;;;;14.80;7.85;;;;;;;;;;5093701;28;20071;-85
2022/03/03 01:36:10;;;;;;;19.55;9.57;;;;;;;;;;5082131;28;20458;-85
2022/03/03 01:38:36;;;;;;;20.75;8.95;;;;;;;;;;5094275;28;20087;-85
2022/03/03 01:41:03;;;;;;;19.92;8.65;;;;;;;;;;5087300;28;20402;-85
2022/03/03 01:43:29;;;;;;;15.57;8.05;;;;;;;;;;5094847;28;20496;-85
2022/03/03 01:45:57;;;;;;;18.67;9.48;;;;;;;;;;5096226;28;20048;-85
2022/03/03 01:48:24;;;;;;;17.95;9.18;;;;;;;;;;5086480;28;20043;-85
2022/03/03 01:50:52;;;;;;;20.20;9.60;;;;;;;;;;5093005;28;20072;-85
2022/03/03 01:53:19;;;;;;;22.20;8.93;;;;;;;;;;5103553;28;20437;-85
2022/03/03 01:55:46;;;;;;;16.92;8.20;;;;;;;;;;5112077;27;20044;-85
2022/03/03 01:58:13;;;;;;;20.30;8.70;;;;;;;;;;5102653;27;20099;-85
2022/03/03 02:00:39;;;;;;;16.10;8.95;;;;;;;;;;5101870;27;20087;-85
2022/03/03 02:03:07;;;;;;;22.23;9.98;;;;;;;;;;5104342;27;20073;-85
2022/03/03 02:05:34;;;;;;;22.27;10.65;;;;;;;;;;5119156;27;20048;-85
2022/03/03 02:08:00;;;;;;;22.05;9.13;;;;;;;;;;5113830;27;20626;-85
2022/03/03 02:10:27;;;;;;;18.17;9.35;;;;;;;;;;5107358;27;20047;-85
2022/03/03 02:12:53;;;;;;;16.52;8.43;;;;;;;;;;5107893;27;20084;-85
2022/03/03 02:15:21;;;;;;;18.27;10.15;;;;;;;;;;5112144;27;20096;-85
2022/03/03 02:17:47;;;;;;;20.40;9.98;;;;;;;;;;5102856;28;20152;-85
2022/03/03 02:20:23;;;;;;;17.50;9.30;;;;;;;;;;5111230;27;20040;-85
2022/03/03 02:22:49;;;;;;;17.75;8.23;;;;;;;;;;5104852;27;20055;-85
2022/03/03 02:25:16;;;;;;;16.35;8.13;;;;;;;;;;5113606;27;20089;-85
2022/03/03 02:27:44;;;;;;;17.17;9.98;;;;;;;;;;5105389;27;20067;-84
2022/03/03 02:30:11;;;;;;;17.33;9.77;;;;;;;;;;5107953;28;20040;-85
2022/03/03 02:32:38;;;;;;;16.35;9.20;;;;;;;;;;5111739;27;20051;-84
2022/03/03 02:35:05;;;;;;;17.65;9.00;;;;;;;;;;5109436;27;20087;-84
2022/03/03 02:37:34;;;;;;;18.50;9.65;;;;;;;;;;5106231;27;20052;-84
2022/03/03 02:40:01;;;;;;;17.77;9.48;;;;;;;;;;5101789;28;20071;-85
2022/03/03 02:42:27;;;;;;;19.95;9.15;;;;;;;;;;5102375;28;20088;-85
2022/03/03 02:44:54;;;;;;;17.65;9.23;;;;;;;;;;5102023;27;20052;-85
2022/03/03 02:47:20;;;;;;;19.90;8.15;;;;;;;;;;5091911;27;21099;-85
2022/03/03 02:49:47;;;;;;;17.17;8.77;;;;;;;;;;5083445;28;20072;-85
2022/03/03 02:52:13;;;;;;;19.40;10.82;;;;;;;;;;5087930;28;20056;-85
2022/03/03 02:54:41;;;;;;;23.67;11.20;;;;;;;;;;5093549;28;20044;-85
2022/03/03 02:59:52;;;;;;;19.20;10.43;;;;;;;;;;5092322;28;20058;-86
2022/03/03 03:02:19;;;;;;;19.17;9.13;;;;;;;;;;5108840;27;20079;-85
2022/03/03 03:04:45;;;;;;;17.20;9.77;;;;;;;;;;5104913;28;20075;-85
2022/03/03 03:07:12;;;;;;;22.10;10.80;;;;;;;;;;5105905;27;20056;-85
2022/03/03 03:09:38;;;;;;;18.98;8.93;;;;;;;;;;5109703;28;20103;-85
2022/03/03 03:12:07;;;;;;;19.02;9.35;;;;;;;;;;5108229;27;20083;-85
2022/03/03 03:14:34;;;;;;;14.13;8.18;;;;;;;;;;5108315;28;20048;-85
2022/03/03 03:17:00;;;;;;;20.15;10.60;;;;;;;;;;5099691;27;20094;-85
2022/03/03 03:19:27;;;;;;;20.20;11.95;;;;;;;;;;5105328;27;20075;-85
2022/03/03 03:21:53;;;;;;;21.83;10.95;;;;;;;;;;5105689;27;20040;-85
2022/03/03 03:24:20;;;;;;;19.08;10.13;;;;;;;;;;5103809;28;20086;-86
2022/03/03 03:26:53;;;;;;;20.45;9.80;;;;;;;;;;5106360;27;20084;-86
2022/03/03 03:29:21;;;;;;;19.40;9.57;;;;;;;;;;5102915;27;20070;-86
2022/03/03 03:31:48;;;;;;;17.67;8.65;;;;;;;;;;5100646;28;20741;-86
2022/03/03 03:34:14;;;;;;;19.27;10.13;;;;;;;;;;5106651;27;20101;-85
2022/03/03 03:36:41;;;;;;;19.48;9.90;;;;;;;;;;5108285;27;20071;-86
2022/03/03 03:39:08;;;;;;;19.25;9.52;;;;;;;;;;5107854;28;20139;-86
2022/03/03 03:42:03;;;;;;;24.40;11.07;;;;;;;;;;5104521;28;20053;-86
2022/03/03 03:44:31;;;;;;;21.25;10.45;;;;;;;;;;5112837;27;20047;-86
2022/03/03 03:47:12;;;;;;;21.85;10.40;;;;;;;;;;5086892;28;20053;-85
2022/03/03 03:49:39;;;;;;;21.95;11.15;;;;;;;;;;5062508;28;20167;-85
2022/03/03 03:52:06;;;;;;;21.17;10.18;;;;;;;;;;5065085;28;20117;-85
2022/03/03 03:54:33;;;;;;;18.38;8.60;;;;;;;;;;5066682;28;20494;-86
2022/03/03 03:56:59;;;;;;;20.20;9.95;;;;;;;;;;5073484;28;20539;-85
2022/03/03 03:59:26;;;;;;;19.95;10.35;;;;;;;;;;5069467;28;20091;-85
2022/03/03 04:01:54;;;;;;;17.83;9.63;;;;;;;;;;5063256;28;20076;-86
2022/03/03 04:04:20;;;;;;;20.80;10.32;;;;;;;;;;5061932;28;20041;-85
2022/03/03 04:06:47;;;;;;;19.23;9.93;;;;;;;;;;5067125;28;20071;-86
2022/03/03 04:09:13;;;;;;;19.30;10.32;;;;;;;;;;5060133;28;20076;-85
2022/03/03 04:11:40;;;;;;;19.98;10.13;;;;;;;;;;5064239;28;20049;-85
2022/03/03 04:14:06;;;;;;;20.83;9.93;;;;;;;;;;5067510;28;20083;-85
2022/03/03 04:16:33;;;;;;;19.50;9.65;;;;;;;;;;5063316;28;20080;-85
2022/03/03 04:19:01;;;;;;;19.10;9.70;;;;;;;;;;5067613;28;20049;-85
2022/03/03 04:21:27;;;;;;;17.92;9.80;;;;;;;;;;5062298;28;20052;-86
2022/03/03 04:23:54;;;;;;;15.40;8.57;;;;;;;;;;5067301;28;20140;-86
2022/03/03 04:26:20;;;;;;;29.92;9.60;;;;;;;;;;5066052;28;20075;-86
2022/03/03 04:28:47;;;;;;;18.65;9.27;;;;;;;;;;5068596;28;20073;-86
2022/03/03 04:31:13;;;;;;;19.40;10.00;;;;;;;;;;5072476;28;20068;-85
2022/03/03 04:33:41;;;;;;;18.30;9.38;;;;;;;;;;5067336;28;20154;-85
2022/03/03 04:36:09;;;;;;;23.00;10.80;;;;;;;;;;5069522;28;20044;-85
2022/03/03 04:38:35;;;;;;;17.83;8.80;;;;;;;;;;5081000;28;20083;-85
2022/03/03 04:41:02;;;;;;;16.25;9.18;;;;;;;;;;5070283;28;20110;-85
2022/03/03 04:43:28;;;;;;;17.83;8.95;;;;;;;;;;5065997;28;20075;-85
2022/03/03 04:45:55;;;;;;;19.00;10.25;;;;;;;;;;5065089;28;20069;-85
2022/03/03 04:48:29;;;;;;;21.15;10.02;;;;;;;;;;5096178;28;20119;-85
2022/03/03 04:50:55;;;;;;;19.25;9.77;;;;;;;;;;5094836;28;20127;-85
2022/03/03 04:53:30;;;;;;;22.02;11.05;;;;;;;;;;5092117;28;20090;-85
2022/03/03 04:56:00;;;;;;;19.35;10.05;;;;;;;;;;5088891;28;20107;-85
2022/03/03 04:58:26;;;;;;;17.42;8.65;;;;;;;;;;5093575;28;20460;-86
2022/03/03 05:00:53;;;;;;;24.38;10.75;;;;;;;;;;5098663;28;20044;-85
2022/03/03 05:03:20;;;;;;;20.00;9.98;;;;;;;;;;5083596;28;20071;-85
2022/03/03 05:05:46;;;;;;;22.83;11.30;;;;;;;;;;5095249;28;20490;-85
2022/03/03 05:08:13;;;;;;;20.48;9.13;;;;;;;;;;5094107;28;20079;-85
2022/03/03 05:10:41;;;;;;;18.52;8.70;;;;;;;;;;5092536;28;20094;-85
2022/03/03 05:13:08;;;;;;;19.85;10.25;;;;;;;;;;5084339;28;20480;-85
2022/03/03 05:15:35;;;;;;;18.80;10.32;;;;;;;;;;5089798;28;20055;-85
2022/03/03 05:18:01;;;;;;;19.02;9.40;;;;;;;;;;5090585;28;20071;-85
2022/03/03 05:20:28;;;;;;;20.63;9.98;;;;;;;;;;5098601;28;20098;-85
2022/03/03 05:22:55;;;;;;;17.83;10.57;;;;;;;;;;5106503;28;20457;-85
2022/03/03 05:25:21;;;;;;;20.73;9.55;;;;;;;;;;5113886;27;20047;-85
2022/03/03 05:27:51;;;;;;;23.45;11.05;;;;;;;;;;5105501;27;20089;-85
2022/03/03 05:30:17;;;;;;;21.90;9.52;;;;;;;;;;5113768;27;20130;-85
2022/03/03 05:32:47;;;;;;;20.90;11.68;;;;;;;;;;5119514;27;20044;-85
2022/03/03 05:35:14;;;;;;;18.67;9.40;;;;;;;;;;5119489;27;20043;-85
2022/03/03 05:37:40;;;;;;;19.77;10.25;;;;;;;;;;5099952;28;20047;-85
2022/03/03 05:40:08;;;;;;;19.95;10.23;;;;;;;;;;5111709;27;20109;-85
2022/03/03 05:42:35;;;;;;;17.70;9.38;;;;;;;;;;5109523;27;20067;-85
2022/03/03 05:45:03;;;;;;;23.02;11.40;;;;;;;;;;5109609;27;20162;-85
2022/03/03 05:47:30;;;;;;;20.45;11.15;;;;;;;;;;5114803;27;20055;-85
2022/03/03 05:49:59;;;;;;;22.13;11.07;;;;;;;;;;5110157;27;20098;-85
2022/03/03 05:52:25;;;;;;;22.17;11.48;;;;;;;;;;5110294;27;20078;-85
2022/03/03 05:54:52;;;;;;;18.90;9.38;;;;;;;;;;5106245;28;20086;-85
2022/03/03 05:57:20;;;;;;;22.98;11.70;;;;;;;;;;5115413;27;20150;-85
2022/03/03 05:59:49;;;;;;;19.38;9.73;;;;;;;;;;5113202;27;20050;-85
2022/03/03 06:02:18;;;;;;;22.27;11.90;;;;;;;;;;5124822;27;20039;-85
2022/03/03 06:04:45;;;;;;;21.15;11.35;;;;;;;;;;5119465;27;20043;-86
2022/03/03 06:07:11;;;;;;;22.48;10.15;;;;;;;;;;5123560;27;20485;-85
2022/03/03 06:09:38;;;;;;;19.60;9.45;;;;;;;;;;5107502;28;20068;-85
2022/03/03 06:12:07;;;;;;;18.35;10.30;;;;;;;;;;5110036;27;20067;-85
2022/03/03 06:14:39;;;;;;;20.13;10.18;;;;;;;;;;5105954;28;20101;-85
2022/03/03 06:17:06;;;;;;;24.65;11.48;;;;;;;;;;5108715;27;20112;-85
2022/03/03 06:19:40;;;;;;;23.20;10.02;;;;;;;;;;5114426;27;20075;-85
2022/03/03 06:22:07;;;;;;;21.65;10.10;;;;;;;;;;5111455;27;20498;-85
2022/03/03 06:24:34;;;;;;;22.80;10.40;;;;;;;;;;5117530;27;20083;-86
2022/03/03 06:27:01;;;;;;;23.55;10.82;;;;;;;;;;5113034;27;20378;-86
2022/03/03 06:29:28;;;;;;;20.25;10.77;;;;;;;;;;5109978;28;20044;-86
2022/03/03 06:31:55;;;;;;;22.70;9.82;;;;;;;;;;5112708;27;20490;-86
2022/03/03 06:34:23;;;;;;;27.25;11.45;;;;;;;;;;5111090;28;20043;-86
2022/03/03 06:36:51;;;;;;;23.90;11.35;;;;;;;;;;5103588;27;20458;-86
2022/03/03 06:39:18;;;;;;;24.77;11.85;;;;;;;;;;5116738;27;20071;-86
2022/03/03 06:41:44;;;;;;;23.38;11.75;;;;;;;;;;5110771;28;20358;-86
2022/03/03 06:44:11;;;;;;;21.10;11.48;;;;;;;;;;5111818;27;20044;-86
2022/03/03 06:46:38;;;;;;;23.02;11.57;;;;;;;;;;5103911;27;20509;-86
2022/03/03 06:49:05;;;;;;;20.70;9.98;;;;;;;;;;5110748;28;20130;-86
2022/03/03 06:51:39;;;;;;;22.83;11.38;;;;;;;;;;5106938;28;21193;-86
2022/03/03 06:54:08;;;;;;;28.85;12.27;;;;;;;;;;5111374;28;20133;-86
2022/03/03 06:56:37;;;;;;;21.67;12.05;;;;;;;;;;5108527;27;20051;-86
2022/03/03 06:59:03;;;;;;;26.13;13.05;;;;;;;;;;5100057;28;20136;-86
2022/03/03 07:01:30;;;;;;;24.25;12.52;;;;;;;;;;5105791;28;20044;-86
2022/03/03 07:03:57;;;;;;;24.67;13.05;;;;;;;;;;5111950;28;20199;-86
2022/03/03 07:06:24;;;;;;;28.45;13.18;;;;;;;;;;5103233;28;20047;-85
2022/03/03 07:08:54;;;;;;;36.72;17.70;;;;;;;;;;5109541;28;20076;-86
2022/03/03 07:11:23;;;;;;;39.05;17.70;;;;;;;;;;5103429;28;20040;-86
2022/03/03 07:13:50;;;;;;;32.85;15.90;;;;;;;;;;5112503;28;20051;-86
2022/03/03 07:16:23;;;;;;;33.00;16.13;;;;;;;;;;5110669;28;20044;-86
2022/03/03 07:18:52;;;;;;;32.70;16.30;;;;;;;;;;5108779;28;20039;-86
2022/03/03 07:21:25;;;;;;;39.90;18.13;;;;;;;;;;5104905;28;20068;-86
2022/03/03 07:24:00;;;;;;;33.47;15.57;;;;;;;;;;5103682;28;20075;-86
2022/03/03 07:26:30;;;;;;;44.03;17.90;;;;;;;;;;5113156;27;20051;-86
2022/03/03 07:29:00;;;;;;;32.10;16.58;;;;;;;;;;5108875;28;20066;-86
2022/03/03 07:31:31;;;;;;;29.55;14.63;;;;;;;;;;5098152;28;20138;-86
2022/03/03 07:34:00;;;;;;;29.48;15.20;;;;;;;;;;5102373;28;20048;-86
2022/03/03 07:36:29;;;;;;;29.48;15.57;;;;;;;;;;5104341;28;20513;-86
2022/03/03 07:38:58;;;;;;;28.80;14.02;;;;;;;;;;5105921;28;20090;-86
2022/03/03 07:41:26;;;;;;;25.73;12.77;;;;;;;;;;5100735;28;20070;-86
2022/03/03 07:43:54;;;;;;;28.38;14.02;;;;;;;;;;5113320;28;20048;-86
2022/03/03 07:46:21;;;;;;;19.70;12.18;;;;;;;;;;5105946;28;20096;-86
2022/03/03 07:48:50;;;;;;;20.30;12.13;;;;;;;;;;5103586;28;21764;-86
2022/03/03 07:51:17;;;;;;;22.45;12.35;;;;;;;;;;5100502;28;20494;-86
2022/03/03 07:53:44;;;;;;;22.42;13.75;;;;;;;;;;5106050;28;20485;-85
2022/03/03 07:56:13;;;;;;;28.85;14.52;;;;;;;;;;5105440;28;20043;-86
2022/03/03 07:58:42;;;;;;;27.08;14.30;;;;;;;;;;5106082;28;20093;-86
2022/03/03 08:01:11;;;;;;;31.20;15.45;;;;;;;;;;5100346;28;20131;-86
2022/03/03 08:03:39;;;;;;;27.00;13.32;;;;;;;;;;5104971;28;20051;-85
2022/03/03 08:06:06;;;;;;;30.15;15.45;;;;;;;;;;5106348;28;20068;-86
2022/03/03 08:08:32;;;;;;;29.85;14.00;;;;;;;;;;5104735;28;20044;-86
2022/03/03 08:11:00;;;;;;;32.80;15.30;;;;;;;;;;5103536;28;20040;-86
2022/03/03 08:13:29;;;;;;;29.67;14.95;;;;;;;;;;5104379;28;20101;-86
2022/03/03 08:15:56;;;;;;;26.08;15.23;;;;;;;;;;5101791;28;20043;-86
2022/03/03 08:18:26;;;;;;;29.65;15.05;;;;;;;;;;5102188;28;20043;-86
2022/03/03 08:20:54;;;;;;;23.58;14.48;;;;;;;;;;5101460;28;20040;-86
2022/03/03 08:23:21;;;;;;;26.75;13.20;;;;;;;;;;5101874;28;20043;-86
2022/03/03 08:25:48;;;;;;;27.90;13.73;;;;;;;;;;5107953;28;21959;-86
2022/03/03 08:28:17;;;;;;;40.03;15.73;;;;;;;;;;5107754;28;20099;-86
2022/03/03 08:30:45;;;;;;;24.80;14.55;;;;;;;;;;5106423;28;20096;-86
2022/03/03 08:33:14;;;;;;;25.67;14.23;;;;;;;;;;5108023;28;20074;-86
2022/03/03 08:35:45;;;;;;;26.42;14.27;;;;;;;;;;5109738;28;20052;-86
2022/03/03 08:38:18;;;;;;;30.92;15.93;;;;;;;;;;5108473;28;20047;-86
2022/03/03 08:40:46;;;;;;;23.40;14.60;;;;;;;;;;5110893;28;20051;-86
2022/03/03 08:43:14;;;;;;;29.13;15.75;;;;;;;;;;5110057;28;20048;-86
2022/03/03 08:45:42;;;;;;;26.30;14.40;;;;;;;;;;5105404;28;20059;-86
2022/03/03 08:48:37;;;;;;;23.63;15.20;;;;;;;;;;5103010;28;20112;-86
2022/03/03 08:51:05;;;;;;;28.88;16.63;;;;;;;;;;5107830;28;20083;-86
2022/03/03 08:53:31;;;;;;;24.35;14.10;;;;;;;;;;5104144;28;20082;-86
2022/03/03 08:56:00;;;;;;;24.98;14.00;;;;;;;;;;5107640;28;20088;-86
2022/03/03 08:58:27;;;;;;;27.58;14.98;;;;;;;;;;5110456;28;20047;-86
2022/03/03 09:00:53;;;;;;;32.15;14.90;;;;;;;;;;5105070;28;20059;-86
2022/03/03 09:03:22;;;;;;;26.38;14.15;;;;;;;;;;5101190;28;20068;-86
2022/03/03 09:05:49;;;;;;;25.98;13.43;;;;;;;;;;5105977;28;20048;-86
2022/03/03 09:08:17;;;;;;;24.50;14.10;;;;;;;;;;5103683;28;20074;-87
2022/03/03 09:10:44;;;;;;;23.95;14.45;;;;;;;;;;5107752;27;20288;-87
2022/03/03 09:13:10;;;;;;;25.75;14.27;;;;;;;;;;5108777;27;20056;-87
2022/03/03 09:15:37;;;;;;;24.92;14.15;;;;;;;;;;5107043;28;20132;-87
2022/03/03 09:18:04;;;;;;;24.27;14.60;;;;;;;;;;5106855;28;20074;-87
2022/03/03 09:20:32;;;;;;;23.38;14.65;;;;;;;;;;5106355;28;20522;-87
2022/03/03 09:22:59;;;;;;;21.25;13.18;;;;;;;;;;5108067;28;20043;-87
2022/03/03 09:25:27;;;;;;;20.02;13.43;;;;;;;;;;5100510;28;20090;-87
2022/03/03 09:27:53;;;;;;;24.50;13.43;;;;;;;;;;5103425;27;20044;-87
2022/03/03 09:30:21;;;;;;;23.20;13.73;;;;;;;;;;5104244;28;20560;-87
2022/03/03 09:32:48;;;;;;;21.95;12.93;;;;;;;;;;5103445;28;20050;-87
2022/03/03 09:35:15;;;;;;;18.63;12.88;;;;;;;;;;5100396;28;20075;-87
2022/03/03 09:37:42;;;;;;;21.58;13.40;;;;;;;;;;5107031;28;20422;-87
2022/03/03 09:40:10;;;;;;;19.20;12.18;;;;;;;;;;5102925;28;20547;-85
2022/03/03 09:42:38;;;;;;;22.67;11.93;;;;;;;;;;5101947;28;20116;-87
2022/03/03 09:45:08;;;;;;;21.80;13.20;;;;;;;;;;5104560;28;20048;-87
2022/03/03 09:47:35;;;;;;;20.00;12.43;;;;;;;;;;5102254;28;20139;-87
2022/03/03 09:50:02;;;;;;;20.05;12.82;;;;;;;;;;5105240;28;20496;-87
2022/03/03 09:52:30;;;;;;;20.23;12.43;;;;;;;;;;5099213;28;20087;-87
2022/03/03 09:54:59;;;;;;;21.85;12.75;;;;;;;;;;5102854;28;20154;-87
2022/03/03 09:57:26;;;;;;;17.55;11.75;;;;;;;;;;5101959;27;20055;-87
2022/03/03 09:59:56;;;;;;;20.38;13.23;;;;;;;;;;5102286;28;20477;-87
2022/03/03 10:02:23;;;;;;;22.48;13.32;;;;;;;;;;5102903;28;20461;-87
2022/03/03 10:04:50;;;;;;;23.38;13.18;;;;;;;;;;5107835;28;20036;-87
2022/03/03 10:07:17;;;;;;;22.38;13.57;;;;;;;;;;5103873;28;20101;-87
2022/03/03 10:10:10;;;;;;;20.60;14.20;;;;;;;;;;5104706;28;20063;-86
2022/03/03 10:12:45;;;;;;;19.17;13.05;;;;;;;;;;5098541;28;20047;-88
2022/03/03 10:15:17;;;;;;;18.33;11.65;;;;;;;;;;5106029;28;20097;-87
2022/03/03 10:17:44;;;;;;;15.15;10.23;;;;;;;;;;5104536;28;20036;-87
2022/03/03 10:20:11;;;;;;;20.75;11.48;;;;;;;;;;5103044;27;20044;-87
2022/03/03 10:22:40;;;;;;;14.90;9.80;;;;;;;;;;5105205;28;20528;-87
2022/03/03 10:25:07;;;;;;;16.92;10.18;;;;;;;;;;5105110;28;20125;-87
2022/03/03 10:27:34;;;;;;;14.63;10.10;;;;;;;;;;5101874;28;20086;-87
2022/03/03 10:30:03;;;;;;;15.80;8.85;;;;;;;;;;5108838;28;20120;-87
2022/03/03 10:32:35;;;;;;;11.95;8.60;;;;;;;;;;5100189;28;20123;-88
2022/03/03 10:35:03;;;;;;;14.75;9.02;;;;;;;;;;5103359;27;20482;-88
2022/03/03 10:37:32;;;;;;;12.98;8.63;;;;;;;;;;5103860;28;20071;-87
2022/03/03 10:40:01;;;;;;;13.65;7.85;;;;;;;;;;5108123;28;20065;-87
2022/03/03 10:42:28;;;;;;;10.77;7.85;;;;;;;;;;5103241;27;20104;-88
2022/03/03 10:45:07;;;;;;;11.70;7.32;;;;;;;;;;5101395;28;20078;-87
2022/03/03 10:50:44;;;;;;;13.20;8.23;;;;;;;;;;5087732;28;20466;-87
2022/03/03 10:53:11;;;;;;;12.48;7.70;;;;;;;;;;5081381;28;20044;-85
2022/03/03 10:55:38;;;;;;;10.32;7.43;;;;;;;;;;5087219;28;20574;-85
2022/03/03 10:58:04;;;;;;;13.52;8.35;;;;;;;;;;5079559;28;20075;-85
2022/03/03 11:00:34;;;;;;;12.70;7.90;;;;;;;;;;5082111;28;20079;-85
2022/03/03 11:03:04;;;;;;;12.02;8.07;;;;;;;;;;5081662;28;20048;-85
2022/03/03 11:05:31;;;;;;;12.13;8.77;;;;;;;;;;5078576;28;20568;-85
2022/03/03 11:07:58;;;;;;;11.20;8.60;;;;;;;;;;5084103;28;20067;-85
2022/03/03 11:10:26;;;;;;;16.67;6.68;;;;;;;;;;5083764;28;20044;-85
2022/03/03 11:12:53;;;;;;;12.20;7.50;;;;;;;;;;5082004;28;20044;-85
2022/03/03 11:15:22;;;;;;;9.13;6.63;;;;;;;;;;5083837;28;20064;-85
2022/03/03 11:17:50;;;;;;;10.68;7.55;;;;;;;;;;5085621;28;20064;-85
2022/03/03 11:20:19;;;;;;;10.15;7.30;;;;;;;;;;5082972;28;20642;-85
2022/03/03 11:22:47;;;;;;;10.15;7.30;;;;;;;;;;5081852;28;20075;-85
2022/03/03 11:25:16;;;;;;;13.25;7.45;;;;;;;;;;5079823;28;20503;-85
2022/03/03 11:27:44;;;;;;;10.27;7.60;;;;;;;;;;5078407;28;20127;-85
2022/03/03 11:30:15;;;;;;;10.90;7.18;;;;;;;;;;5083486;28;20067;-84
2022/03/03 11:32:42;;;;;;;11.02;8.10;;;;;;;;;;5081643;28;20068;-85
2022/03/03 11:35:11;;;;;;;11.52;7.85;;;;;;;;;;5087497;28;20084;-84
2022/03/03 11:37:43;;;;;;;11.85;8.30;;;;;;;;;;5084591;28;20055;-85
2022/03/03 11:40:13;;;;;;;12.40;8.02;;;;;;;;;;5087640;28;20056;-85
2022/03/03 11:42:41;;;;;;;12.15;8.40;;;;;;;;;;5086096;28;20143;-85
2022/03/03 11:45:31;;;;;;;10.15;7.60;;;;;;;;;;5087432;28;20067;-85
2022/03/03 11:48:09;;;;;;;12.70;9.27;;;;;;;;;;5087108;28;20059;-85
2022/03/03 11:50:36;;;;;;;13.82;8.82;;;;;;;;;;5101455;28;20168;-85
2022/03/03 11:53:21;;;;;;;14.50;9.57;;;;;;;;;;5098189;28;20082;-85
2022/03/03 11:55:49;;;;;;;12.27;8.57;;;;;;;;;;5104265;28;20485;-85
2022/03/03 11:58:17;;;;;;;14.93;9.40;;;;;;;;;;5107211;28;20128;-84
2022/03/03 12:00:46;;;;;;;13.90;9.70;;;;;;;;;;5105692;28;20079;-84
2022/03/03 12:03:14;;;;;;;15.63;10.13;;;;;;;;;;5107129;28;20130;-85
2022/03/03 12:05:45;;;;;;;12.13;8.23;;;;;;;;;;5108330;28;20047;-85
2022/03/03 12:08:36;;;;;;;15.32;9.38;;;;;;;;;;5104524;28;20052;-85
2022/03/03 12:11:08;;;;;;;14.45;10.45;;;;;;;;;;5101023;28;20491;-85
2022/03/03 12:13:43;;;;;;;13.43;9.57;;;;;;;;;;5106642;28;20048;-85
2022/03/03 12:16:26;;;;;;;14.02;9.15;;;;;;;;;;5100461;28;20048;-85
2022/03/03 12:19:07;;;;;;;19.77;9.75;;;;;;;;;;5102345;28;20119;-85
2022/03/03 12:21:35;;;;;;;14.55;9.20;;;;;;;;;;5103036;28;20047;-85
2022/03/03 12:24:27;;;;;;;14.73;9.27;;;;;;;;;;5103313;28;20089;-85
2022/03/03 12:27:18;;;;;;;13.48;9.55;;;;;;;;;;5100983;28;20040;-85
2022/03/03 12:29:57;;;;;;;14.95;9.75;;;;;;;;;;5106794;28;20047;-85
2022/03/03 12:32:34;;;;;;;13.48;10.13;;;;;;;;;;5105532;28;20040;-85
2022/03/03 12:35:03;;;;;;;11.55;9.27;;;;;;;;;;5110439;28;20082;-85
2022/03/03 12:37:31;;;;;;;14.65;10.00;;;;;;;;;;5097592;28;20097;-86
2022/03/03 12:40:01;;;;;;;13.95;8.50;;;;;;;;;;5108094;28;20119;-86
2022/03/03 12:42:30;;;;;;;14.65;9.35;;;;;;;;;;5096128;28;20086;-86
2022/03/03 12:44:58;;;;;;;16.35;9.02;;;;;;;;;;5111417;28;20044;-86
2022/03/03 12:47:32;;;;;;;13.50;8.90;;;;;;;;;;5107460;28;20074;-86
2022/03/03 12:50:02;;;;;;;13.48;8.85;;;;;;;;;;5113780;28;20509;-85
2022/03/03 12:52:29;;;;;;;13.52;9.73;;;;;;;;;;5116015;27;20113;-85
2022/03/03 12:54:56;;;;;;;16.02;9.15;;;;;;;;;;5112261;28;20462;-86
2022/03/03 12:57:31;;;;;;;13.35;8.68;;;;;;;;;;5109994;27;20115;-86
2022/03/03 13:00:01;;;;;;;12.48;9.07;;;;;;;;;;5111830;28;20048;-87
2022/03/03 13:02:28;;;;;;;13.82;9.55;;;;;;;;;;5112842;28;20048;-86
2022/03/03 13:04:54;;;;;;;17.13;9.35;;;;;;;;;;5109037;28;20104;-87
2022/03/03 13:07:22;;;;;;;12.93;8.65;;;;;;;;;;5108713;28;20122;-87
2022/03/03 13:09:53;;;;;;;12.02;8.60;;;;;;;;;;5105657;27;20113;-86
2022/03/03 13:12:25;;;;;;;13.30;9.52;;;;;;;;;;5108374;28;20067;-86
2022/03/03 13:15:01;;;;;;;12.43;8.63;;;;;;;;;;5105271;28;20089;-86
2022/03/03 13:17:29;;;;;;;12.30;8.15;;;;;;;;;;5105261;28;20482;-86
2022/03/03 13:19:57;;;;;;;14.63;9.95;;;;;;;;;;5110134;28;20077;-87
2022/03/03 13:22:24;;;;;;;14.88;9.52;;;;;;;;;;5102797;27;20097;-87
2022/03/03 13:24:51;;;;;;;13.35;8.38;;;;;;;;;;5103117;28;20047;-87
2022/03/03 13:27:17;;;;;;;13.88;9.57;;;;;;;;;;5101947;27;20052;-86
2022/03/03 13:29:44;;;;;;;14.48;9.02;;;;;;;;;;5101328;28;20080;-87
2022/03/03 13:32:13;;;;;;;15.50;8.50;;;;;;;;;;5099482;27;20076;-87
2022/03/03 13:34:45;;;;;;;10.93;7.53;;;;;;;;;;5104599;27;20770;-86
2022/03/03 13:37:16;;;;;;;10.65;8.23;;;;;;;;;;5104732;28;20048;-87
2022/03/03 13:39:42;;;;;;;12.45;7.75;;;;;;;;;;5102457;27;20093;-87
2022/03/03 13:42:10;;;;;;;11.98;8.48;;;;;;;;;;5101242;27;20116;-87
2022/03/03 13:44:38;;;;;;;12.52;8.70;;;;;;;;;;5106443;28;20119;-86
2022/03/03 13:47:06;;;;;;;13.80;8.05;;;;;;;;;;5107957;27;20142;-86
2022/03/03 13:49:36;;;;;;;14.35;8.20;;;;;;;;;;5097095;27;20083;-86
2022/03/03 13:52:14;;;;;;;13.05;8.48;;;;;;;;;;5099855;27;20534;-86
2022/03/03 13:54:46;;;;;;;12.73;8.30;;;;;;;;;;5098761;27;20063;-86
2022/03/03 13:57:32;;;;;;;14.63;8.45;;;;;;;;;;5098704;28;20044;-86
2022/03/03 14:00:00;;;;;;;11.88;8.88;;;;;;;;;;5100085;28;20513;-86
2022/03/03 14:02:27;;;;;;;15.27;7.25;;;;;;;;;;5094834;27;20056;-86
2022/03/03 14:05:02;;;;;;;11.60;7.65;;;;;;;;;;5097965;27;20142;-86
2022/03/03 14:07:29;;;;;;;11.57;8.20;;;;;;;;;;5097660;28;20059;-87
2022/03/03 14:09:58;;;;;;;11.57;7.63;;;;;;;;;;5101338;28;20139;-87
2022/03/03 14:12:24;;;;;;;11.80;7.45;;;;;;;;;;5096103;27;20120;-86
2022/03/03 14:14:51;;;;;;;12.30;7.95;;;;;;;;;;5098365;28;20071;-87
2022/03/03 14:17:18;;;;;;;9.65;6.85;;;;;;;;;;5095788;27;20078;-86
2022/03/03 14:19:44;;;;;;;10.52;7.38;;;;;;;;;;5095407;27;20160;-86
2022/03/03 14:22:12;;;;;;;10.35;7.13;;;;;;;;;;5096431;28;20139;-87
2022/03/03 14:24:39;;;;;;;11.23;7.47;;;;;;;;;;5099639;27;20104;-87
2022/03/03 14:27:06;;;;;;;12.55;7.43;;;;;;;;;;5098456;27;20079;-87
2022/03/03 14:29:33;;;;;;;9.95;6.50;;;;;;;;;;5103524;27;20455;-87
2022/03/03 14:31:59;;;;;;;9.95;6.50;;;;;;;;;;5103160;27;20070;-87
2022/03/03 14:34:26;;;;;;;9.65;6.80;;;;;;;;;;5104909;28;20478;-87
2022/03/03 14:36:53;;;;;;;56.65;9.65;;;;;;;;;;5105907;27;20050;-87